Terminal Aerodrome Forecast
Issued by NWS Twin Cities, MN

Home | Current Version | Previous Version | Text Only | Print | Product List | Glossary Off
Versions: 1 2 3 4 5 6 7 8 9 10 11 12 13 14 15 16 17 18 19 20 21 22 23

000
FTUS43 KMPX 011403 AAB
TAFEAU
TAF AMD
KEAU 011403Z 0114/0212 18005KT 4SM BR SCT035
      TEMPO 0114/0115 P6SM NSW VV003
     FM011500 21005KT P6SM FEW030 BKN200
     FM020700 20002KT 2SM BR SCT010 BKN200=

USA.gov is the U.S. government's official web portal to all federal, state and local government web resources and services.